createdAt,value
2019-03-30T00:00:30.622Z,84.13
2019-03-30T00:03:00.158Z,82.97
2019-03-30T00:05:29.775Z,82.40
2019-03-30T00:07:59.305Z,81.27
2019-03-30T00:10:28.739Z,82.87
2019-03-30T00:12:58.129Z,80.70
2019-03-30T00:15:27.770Z,80.17
2019-03-30T00:17:57.157Z,80.30
2019-03-30T00:20:26.641Z,81.30
2019-03-30T00:22:56.043Z,82.37
2019-03-30T00:25:25.460Z,80.67
2019-03-30T00:27:54.871Z,84.90
2019-03-30T00:30:24.303Z,88.53
2019-03-30T00:32:53.729Z,79.33
2019-03-30T00:35:23.340Z,83.37
2019-03-30T00:37:52.914Z,80.00
2019-03-30T00:40:22.426Z,82.17
2019-03-30T00:42:52.058Z,76.20
2019-03-30T00:45:21.633Z,85.87
2019-03-30T00:47:51.211Z,89.20
2019-03-30T00:50:20.778Z,86.37
2019-03-30T00:52:50.362Z,85.53
2019-03-30T00:55:19.865Z,87.17
2019-03-30T00:57:49.275Z,83.63
2019-03-30T01:00:18.842Z,82.60
2019-03-30T01:02:48.333Z,81.87
2019-03-30T01:05:17.735Z,86.53
2019-03-30T01:07:47.294Z,79.67
2019-03-30T01:10:16.926Z,81.40
2019-03-30T01:12:46.298Z,78.83
2019-03-30T01:15:16.039Z,78.13
2019-03-30T01:17:45.557Z,77.67
2019-03-30T01:20:15.228Z,79.43
2019-03-30T01:22:44.760Z,83.97
2019-03-30T01:25:14.380Z,86.57
2019-03-30T01:27:43.865Z,79.47
2019-03-30T01:30:22.921Z,83.93
2019-03-30T01:32:44.730Z,86.00
2019-03-30T01:35:14.407Z,83.03
2019-03-30T01:37:43.818Z,83.67
2019-03-30T01:40:13.419Z,87.90
2019-03-30T01:42:42.866Z,79.13
2019-03-30T01:45:12.426Z,82.13
2019-03-30T01:47:42.050Z,81.33
2019-03-30T01:50:17.641Z,77.30
2019-03-30T01:52:43.809Z,82.10
2019-03-30T01:55:13.383Z,81.17
2019-03-30T01:57:42.814Z,84.80
2019-03-30T02:00:13.329Z,83.10
2019-03-30T02:02:42.798Z,81.97
2019-03-30T02:05:12.397Z,80.07
2019-03-30T02:07:41.838Z,81.13
2019-03-30T02:10:11.950Z,78.90
2019-03-30T02:12:41.488Z,85.40
2019-03-30T02:15:11.073Z,79.27
2019-03-30T02:17:40.650Z,75.40
2019-03-30T02:20:30.206Z,75.33
2019-03-30T02:22:47.774Z,74.03
2019-03-30T02:25:17.329Z,75.37
2019-03-30T02:27:46.738Z,79.27
2019-03-30T02:30:16.305Z,81.00
2019-03-30T02:32:45.766Z,79.60
2019-03-30T02:35:15.350Z,78.57
2019-03-30T02:37:44.791Z,79.17
2019-03-30T02:40:14.321Z,76.93
2019-03-30T02:42:43.780Z,73.47
2019-03-30T02:45:14.154Z,75.83
2019-03-30T02:47:43.693Z,76.27
2019-03-30T02:50:13.329Z,82.47
2019-03-30T02:52:42.770Z,80.93
2019-03-30T02:55:12.840Z,76.73
2019-03-30T02:57:42.742Z,76.33
2019-03-30T03:00:16.006Z,77.00
2019-03-30T03:02:45.662Z,83.07
2019-03-30T03:05:16.019Z,71.83
2019-03-30T03:07:45.592Z,75.37
2019-03-30T03:10:15.754Z,78.40
2019-03-30T03:12:45.309Z,73.87
2019-03-30T03:15:14.823Z,75.50
2019-03-30T03:17:44.289Z,74.23
2019-03-30T03:20:13.852Z,69.10
2019-03-30T03:22:43.223Z,70.10
2019-03-30T03:25:12.815Z,78.20
2019-03-30T03:27:42.305Z,76.70
2019-03-30T03:30:12.506Z,76.10
2019-03-30T03:32:42.013Z,77.77
2019-03-30T03:35:12.291Z,74.80
2019-03-30T03:37:45.362Z,78.60
2019-03-30T03:40:13.642Z,71.23
2019-03-30T03:42:43.135Z,75.20
2019-03-30T03:45:12.701Z,69.17
2019-03-30T03:47:42.299Z,72.00
2019-03-30T03:50:30.361Z,74.67
2019-03-30T03:52:59.950Z,76.67
2019-03-30T03:55:30.197Z,75.23
2019-03-30T03:58:01.641Z,74.00
2019-03-30T04:00:31.253Z,72.17
2019-03-30T04:03:03.494Z,71.40
2019-03-30T04:05:34.434Z,76.93
2019-03-30T04:08:05.975Z,74.00
2019-03-30T04:10:37.914Z,72.63
2019-03-30T04:13:11.128Z,69.30
2019-03-30T04:15:40.880Z,70.77
2019-03-30T04:18:10.436Z,76.50
2019-03-30T04:20:39.891Z,72.23
2019-03-30T04:23:09.299Z,73.23
2019-03-30T04:25:38.695Z,72.87
2019-03-30T04:28:08.105Z,67.57
2019-03-30T04:30:37.598Z,66.43
2019-03-30T04:33:07.024Z,66.53
2019-03-30T04:35:36.541Z,70.80
2019-03-30T04:38:06.018Z,67.43
2019-03-30T04:40:35.431Z,69.17
2019-03-30T04:43:04.896Z,71.57
2019-03-30T04:45:34.295Z,73.80
2019-03-30T04:48:03.765Z,69.80
2019-03-30T04:50:33.364Z,68.53
2019-03-30T04:53:02.828Z,68.93
2019-03-30T04:55:32.262Z,72.10
2019-03-30T04:58:01.710Z,69.17
2019-03-30T05:00:31.134Z,77.10
2019-03-30T05:03:00.510Z,69.67
2019-03-30T05:05:29.913Z,77.90
2019-03-30T05:07:59.392Z,70.67
2019-03-30T05:10:28.939Z,66.63
2019-03-30T05:12:58.438Z,64.00
2019-03-30T05:15:28.297Z,67.97
2019-03-30T05:17:57.698Z,66.37
2019-03-30T05:20:27.246Z,67.13
2019-03-30T05:22:56.718Z,68.93
2019-03-30T05:25:26.118Z,68.63
2019-03-30T05:27:55.768Z,68.47
2019-03-30T05:30:25.255Z,63.53
2019-03-30T05:33:05.668Z,66.30
2019-03-30T05:35:25.918Z,62.77
2019-03-30T05:37:55.538Z,63.60
2019-03-30T05:40:25.129Z,71.43
2019-03-30T05:42:54.622Z,66.10
2019-03-30T05:45:24.123Z,67.07
2019-03-30T05:47:53.630Z,66.43
2019-03-30T05:50:23.160Z,65.30
2019-03-30T05:52:52.651Z,70.20
2019-03-30T05:55:22.092Z,68.93
2019-03-30T05:57:51.564Z,66.90
2019-03-30T06:00:23.354Z,64.53
2019-03-30T06:02:52.781Z,60.20
2019-03-30T06:05:22.391Z,67.20
2019-03-30T06:07:51.983Z,76.27
2019-03-30T06:10:21.498Z,72.33
2019-03-30T06:12:50.945Z,67.63
2019-03-30T06:15:20.426Z,64.67
2019-03-30T06:17:49.893Z,65.77
2019-03-30T06:20:19.341Z,67.40
2019-03-30T06:22:48.732Z,61.23
2019-03-30T06:25:18.125Z,57.03
2019-03-30T06:27:47.618Z,49.73
2019-03-30T06:30:25.516Z,49.10
2019-03-30T06:32:55.074Z,52.83
2019-03-30T06:35:24.604Z,48.37
2019-03-30T06:37:53.966Z,48.30
2019-03-30T06:40:23.434Z,57.30
2019-03-30T06:42:52.981Z,61.50
2019-03-30T06:45:22.505Z,43.93
2019-03-30T06:47:51.922Z,37.03
2019-03-30T06:50:21.582Z,42.70
2019-03-30T06:52:57.441Z,39.00
2019-03-30T06:55:34.598Z,39.60
2019-03-30T06:58:04.211Z,37.73
2019-03-30T07:00:35.324Z,36.67
2019-03-30T07:03:06.779Z,35.63
2019-03-30T07:05:43.712Z,38.90
2019-03-30T07:08:14.823Z,34.23
2019-03-30T07:10:45.946Z,35.00
2019-03-30T07:13:16.392Z,34.43
2019-03-30T07:15:50.065Z,29.83
2019-03-30T07:18:20.084Z,29.07
2019-03-30T07:20:49.770Z,29.30
2019-03-30T07:23:19.282Z,27.90
2019-03-30T07:25:48.818Z,29.63
2019-03-30T07:28:18.235Z,32.50
2019-03-30T07:30:47.766Z,27.83
2019-03-30T07:33:17.193Z,30.40
2019-03-30T07:35:46.754Z,28.40
2019-03-30T07:38:16.387Z,31.13
2019-03-30T07:40:45.986Z,29.37
2019-03-30T07:43:15.462Z,29.30
2019-03-30T07:45:44.950Z,30.70
2019-03-30T07:48:14.477Z,27.13
2019-03-30T07:50:43.995Z,28.90
2019-03-30T07:53:25.643Z,28.33
2019-03-30T07:55:44.692Z,29.27
2019-03-30T07:58:14.183Z,29.97
2019-03-30T08:00:43.716Z,27.67
2019-03-30T08:03:13.278Z,28.40
2019-03-30T08:05:42.637Z,29.30
2019-03-30T08:08:12.104Z,28.83
2019-03-30T08:10:41.589Z,29.50
2019-03-30T08:13:11.124Z,29.23
2019-03-30T08:15:40.595Z,31.70
2019-03-30T08:18:09.970Z,31.33
2019-03-30T08:20:39.470Z,30.73
2019-03-30T08:23:09.000Z,32.60
2019-03-30T08:25:38.563Z,35.97
2019-03-30T08:28:08.111Z,32.43
2019-03-30T08:30:37.613Z,29.60
2019-03-30T08:33:07.149Z,35.07
2019-03-30T08:35:36.721Z,31.77
2019-03-30T08:38:06.226Z,35.60
2019-03-30T08:40:35.637Z,29.37
2019-03-30T08:43:05.159Z,32.13
2019-03-30T08:45:34.550Z,35.37
2019-03-30T08:48:04.034Z,28.27
2019-03-30T08:50:33.534Z,17.13
2019-03-30T08:53:03.024Z,26.87
2019-03-30T08:55:32.395Z,30.27
2019-03-30T08:58:01.829Z,30.90
2019-03-30T09:00:41.958Z,33.23
2019-03-30T09:03:11.656Z,34.53
2019-03-30T09:05:42.022Z,33.67
2019-03-30T09:08:11.569Z,33.60
2019-03-30T09:10:41.065Z,34.10
2019-03-30T09:13:10.654Z,31.73
2019-03-30T09:15:40.104Z,16.70
2019-03-30T09:18:09.478Z,34.83
2019-03-30T09:20:38.968Z,30.93
2019-03-30T09:23:08.473Z,14.43
2019-03-30T09:25:38.026Z,36.43
2019-03-30T09:28:07.537Z,39.30
2019-03-30T09:30:36.907Z,17.67
2019-03-30T09:33:06.387Z,37.27
2019-03-30T09:35:35.989Z,38.70
2019-03-30T09:38:05.544Z,32.20
2019-03-30T09:40:34.996Z,34.13
2019-03-30T09:43:04.545Z,29.10
2019-03-30T09:45:34.050Z,27.00
2019-03-30T09:48:03.633Z,13.10
2019-03-30T09:50:33.158Z,15.87
2019-03-30T09:53:02.639Z,18.27
2019-03-30T09:55:32.218Z,40.50
2019-03-30T09:58:01.784Z,33.50
2019-03-30T10:00:31.470Z,38.07
2019-03-30T10:03:00.959Z,37.60
2019-03-30T10:05:30.351Z,38.50
2019-03-30T10:07:59.738Z,27.13
2019-03-30T10:10:29.226Z,41.00
2019-03-30T10:12:58.748Z,37.57
2019-03-30T10:15:28.301Z,16.03
2019-03-30T10:17:57.785Z,37.67
2019-03-30T10:20:27.342Z,26.03
2019-03-30T10:22:56.829Z,38.80
2019-03-30T10:25:26.381Z,35.87
2019-03-30T10:27:55.856Z,41.03
2019-03-30T10:30:25.348Z,22.90
2019-03-30T10:32:54.718Z,41.43
2019-03-30T10:35:24.246Z,16.97
2019-03-30T10:37:53.719Z,43.43
2019-03-30T10:40:23.204Z,43.73
2019-03-30T10:42:53.860Z,36.67
2019-03-30T10:45:23.198Z,41.57
2019-03-30T10:47:52.698Z,23.67
2019-03-30T10:50:22.322Z,13.30
2019-03-30T10:52:51.768Z,30.73
2019-03-30T10:55:21.227Z,22.23
2019-03-30T10:57:50.922Z,43.00
2019-03-30T11:00:36.293Z,32.87
2019-03-30T11:03:05.964Z,40.83
2019-03-30T11:05:35.599Z,20.63
2019-03-30T11:08:05.225Z,23.17
2019-03-30T11:10:34.780Z,19.10
2019-03-30T11:13:04.329Z,18.97
2019-03-30T11:15:34.225Z,42.07
2019-03-30T11:18:03.946Z,30.73
2019-03-30T11:20:33.436Z,29.07
2019-03-30T11:23:02.822Z,35.20
2019-03-30T11:25:32.380Z,40.10
2019-03-30T11:28:01.794Z,41.17
2019-03-30T11:30:31.183Z,40.50
2019-03-30T11:33:00.564Z,16.30
2019-03-30T11:35:30.753Z,19.43
2019-03-30T11:38:00.201Z,19.23
2019-03-30T11:40:29.790Z,17.27
2019-03-30T11:42:59.314Z,22.27
2019-03-30T11:45:28.831Z,50.33
2019-03-30T11:47:58.473Z,31.93
2019-03-30T11:50:28.014Z,13.67
2019-03-30T11:52:57.642Z,44.53
2019-03-30T11:55:27.153Z,26.83
2019-03-30T11:57:56.845Z,24.60
2019-03-30T12:00:26.328Z,18.53
2019-03-30T12:02:55.721Z,17.07
2019-03-30T12:05:25.273Z,38.57
2019-03-30T12:07:54.694Z,40.47
2019-03-30T12:10:24.244Z,43.27
2019-03-30T12:12:53.670Z,33.90
2019-03-30T12:15:23.209Z,23.13
2019-03-30T12:17:52.713Z,46.10
2019-03-30T12:20:22.152Z,10.80
2019-03-30T12:22:51.600Z,46.50
2019-03-30T12:25:34.499Z,12.57
2019-03-30T12:27:52.199Z,20.10
2019-03-30T12:30:21.810Z,36.63
2019-03-30T12:32:51.333Z,17.97
2019-03-30T12:35:21.060Z,41.97
2019-03-30T12:37:50.469Z,37.50
2019-03-30T12:40:20.024Z,43.17
2019-03-30T12:42:49.618Z,18.33
2019-03-30T12:45:19.073Z,39.17
2019-03-30T12:47:48.615Z,12.70
2019-03-30T12:50:18.274Z,28.90
2019-03-30T12:52:47.720Z,47.83
2019-03-30T12:55:17.314Z,25.40
2019-03-30T12:57:46.695Z,14.90
2019-03-30T13:00:16.672Z,18.50
2019-03-30T13:02:46.307Z,19.00
2019-03-30T13:05:15.776Z,47.00
2019-03-30T13:07:45.298Z,16.63
2019-03-30T13:10:15.476Z,37.67
2019-03-30T13:12:44.990Z,40.23
2019-03-30T13:15:14.617Z,17.13
2019-03-30T13:17:43.998Z,18.70
2019-03-30T13:20:13.876Z,14.60
2019-03-30T13:22:43.423Z,20.27
2019-03-30T13:25:12.942Z,30.07
2019-03-30T13:27:42.439Z,69.23
2019-03-30T13:30:12.638Z,16.10
2019-03-30T13:32:42.076Z,62.40
2019-03-30T13:35:11.634Z,21.27
2019-03-30T13:37:41.036Z,21.17
2019-03-30T13:40:10.997Z,49.10
2019-03-30T13:42:40.425Z,18.50
2019-03-30T13:45:10.755Z,32.30
2019-03-30T13:47:40.288Z,36.23
2019-03-30T13:50:10.293Z,36.47
2019-03-30T13:52:39.785Z,24.83
2019-03-30T13:55:09.485Z,32.67
2019-03-30T13:57:38.935Z,30.80
2019-03-30T14:00:08.861Z,31.43
2019-03-30T14:02:38.318Z,37.53
2019-03-30T14:05:07.927Z,18.23
2019-03-30T14:07:37.363Z,12.40
2019-03-30T14:10:08.025Z,35.20
2019-03-30T14:12:37.577Z,35.97
2019-03-30T14:15:09.367Z,43.33
2019-03-30T14:17:38.833Z,19.20
2019-03-30T14:20:08.391Z,12.50
2019-03-30T14:22:38.073Z,12.83
2019-03-30T14:25:08.041Z,24.07
2019-03-30T14:27:37.649Z,39.40
2019-03-30T14:30:09.861Z,48.17
2019-03-30T14:32:39.253Z,21.07
2019-03-30T14:35:08.982Z,53.70
2019-03-30T14:37:38.477Z,32.40
2019-03-30T14:40:08.623Z,26.20
2019-03-30T14:42:38.026Z,14.40
2019-03-30T14:45:08.431Z,67.20
2019-03-30T14:47:38.063Z,45.53
2019-03-30T14:50:08.789Z,50.90
2019-03-30T14:52:38.638Z,20.23
2019-03-30T14:55:09.085Z,25.53
2019-03-30T14:57:38.600Z,51.07
2019-03-30T15:00:09.015Z,57.80
2019-03-30T15:02:38.550Z,17.00
2019-03-30T15:05:09.488Z,56.13
2019-03-30T15:07:39.130Z,38.77
2019-03-30T15:10:09.762Z,36.17
2019-03-30T15:12:39.341Z,35.60
2019-03-30T15:15:10.063Z,22.53
2019-03-30T15:17:40.893Z,20.20
2019-03-30T15:20:11.621Z,41.70
2019-03-30T15:22:41.169Z,51.53
2019-03-30T15:25:11.141Z,54.23
2019-03-30T15:27:40.513Z,60.47
2019-03-30T15:30:10.645Z,62.20
2019-03-30T15:32:40.180Z,63.57
2019-03-30T15:35:10.993Z,14.80
2019-03-30T15:37:40.542Z,17.60
2019-03-30T15:40:11.002Z,38.57
2019-03-30T15:42:40.823Z,37.67
2019-03-30T15:45:11.068Z,49.03
2019-03-30T15:47:40.570Z,13.03
2019-03-30T15:50:11.085Z,29.90
2019-03-30T15:52:40.477Z,35.13
2019-03-30T15:55:10.678Z,36.57
2019-03-30T15:57:40.256Z,44.60
2019-03-30T16:00:12.321Z,37.10
2019-03-30T16:02:41.929Z,33.00
2019-03-30T16:05:15.048Z,22.40
2019-03-30T16:07:42.808Z,47.40
2019-03-30T16:10:12.368Z,37.10
2019-03-30T16:12:41.996Z,53.10
2019-03-30T16:15:11.846Z,21.63
2019-03-30T16:17:41.235Z,31.70
2019-03-30T16:20:10.750Z,54.20
2019-03-30T16:22:40.357Z,53.13
2019-03-30T16:25:10.120Z,56.73
2019-03-30T16:27:39.752Z,41.07
2019-03-30T16:30:10.213Z,55.07
2019-03-30T16:32:39.698Z,55.90
2019-03-30T16:35:09.249Z,35.33
2019-03-30T16:37:38.658Z,51.87
2019-03-30T16:40:08.347Z,50.47
2019-03-30T16:42:37.931Z,44.13
2019-03-30T16:45:08.279Z,45.47
2019-03-30T16:47:37.723Z,35.67
2019-03-30T16:50:08.669Z,43.33
2019-03-30T16:52:41.066Z,42.63
2019-03-30T16:55:09.449Z,45.60
2019-03-30T16:57:43.502Z,41.77
2019-03-30T17:00:11.463Z,43.20
2019-03-30T17:02:40.956Z,40.93
2019-03-30T17:05:11.221Z,46.90
2019-03-30T17:07:40.763Z,44.87
2019-03-30T17:10:11.474Z,49.43
2019-03-30T17:12:40.859Z,52.03
2019-03-30T17:15:10.361Z,49.73
2019-03-30T17:17:39.937Z,49.47
2019-03-30T17:20:09.975Z,44.43
2019-03-30T17:22:39.518Z,46.80
2019-03-30T17:25:09.055Z,35.73
2019-03-30T17:27:38.511Z,57.37
2019-03-30T17:30:09.006Z,50.43
2019-03-30T17:32:38.540Z,49.73
2019-03-30T17:35:08.160Z,46.80
2019-03-30T17:37:37.638Z,30.10
2019-03-30T17:40:07.931Z,47.13
2019-03-30T17:42:39.008Z,47.93
2019-03-30T17:45:09.564Z,50.00
2019-03-30T17:47:39.185Z,43.90
2019-03-30T17:50:09.606Z,48.97
2019-03-30T17:52:39.124Z,50.53
2019-03-30T17:55:09.476Z,50.47
2019-03-30T17:57:39.017Z,46.53
2019-03-30T18:00:10.821Z,48.73
2019-03-30T18:02:40.245Z,48.37
2019-03-30T18:05:09.820Z,54.07
2019-03-30T18:07:39.315Z,51.87
2019-03-30T18:10:10.297Z,54.10
2019-03-30T18:12:39.733Z,51.13
2019-03-30T18:15:10.642Z,50.63
2019-03-30T18:17:40.165Z,51.00
2019-03-30T18:20:10.023Z,45.87
2019-03-30T18:22:39.562Z,36.27
2019-03-30T18:25:09.431Z,49.20
2019-03-30T18:27:39.045Z,58.07
2019-03-30T18:30:08.974Z,62.63
2019-03-30T18:32:38.580Z,62.13
2019-03-30T18:35:08.125Z,62.00
2019-03-30T18:37:37.678Z,51.00
2019-03-30T18:40:07.742Z,32.30
2019-03-30T18:42:37.359Z,60.73
2019-03-30T18:45:08.812Z,63.60
2019-03-30T18:47:38.391Z,56.87
2019-03-30T18:50:08.277Z,51.23
2019-03-30T18:52:38.399Z,28.47
2019-03-30T18:55:08.727Z,40.77
2019-03-30T18:57:38.305Z,51.93
2019-03-30T19:00:08.301Z,48.13
2019-03-30T19:02:37.845Z,46.70
2019-03-30T19:05:07.366Z,49.53
2019-03-30T19:07:36.870Z,50.13
2019-03-30T19:10:06.554Z,48.10
2019-03-30T19:12:35.958Z,56.10
2019-03-30T19:15:06.356Z,54.87
2019-03-30T19:17:35.945Z,59.50
2019-03-30T19:20:05.953Z,29.03
2019-03-30T19:22:36.291Z,54.00
2019-03-30T19:25:06.191Z,55.13
2019-03-30T19:27:35.900Z,54.97
2019-03-30T19:30:06.628Z,53.37
2019-03-30T19:32:36.101Z,61.33
2019-03-30T19:35:05.688Z,57.37
2019-03-30T19:37:35.161Z,64.37
2019-03-30T19:40:05.241Z,57.33
2019-03-30T19:42:34.747Z,63.63
2019-03-30T19:45:04.679Z,57.40
2019-03-30T19:47:34.096Z,56.93
2019-03-30T19:50:03.882Z,64.27
2019-03-30T19:52:39.694Z,63.50
2019-03-30T19:55:04.759Z,64.60
2019-03-30T19:57:34.137Z,69.30
2019-03-30T20:00:04.093Z,70.57
2019-03-30T20:02:33.474Z,72.90
2019-03-30T20:05:03.066Z,81.50
2019-03-30T20:07:32.523Z,67.23
2019-03-30T20:10:02.372Z,74.50
2019-03-30T20:12:31.909Z,69.47
2019-03-30T20:15:01.460Z,69.73
2019-03-30T20:17:30.970Z,69.50
2019-03-30T20:20:00.396Z,68.07
2019-03-30T20:22:29.941Z,70.17
2019-03-30T20:24:59.394Z,72.30
2019-03-30T20:27:28.902Z,64.77
2019-03-30T20:29:58.453Z,74.77
2019-03-30T20:32:27.982Z,72.07
2019-03-30T20:34:57.358Z,79.40
2019-03-30T20:37:26.762Z,75.83
2019-03-30T20:39:56.220Z,80.00
2019-03-30T20:42:25.623Z,79.97
2019-03-30T20:44:55.078Z,79.30
2019-03-30T20:47:24.552Z,79.83
2019-03-30T20:49:53.945Z,81.10
2019-03-30T20:52:23.422Z,78.93
2019-03-30T20:54:52.830Z,65.50
2019-03-30T20:57:22.388Z,79.27
2019-03-30T20:59:51.861Z,84.43
2019-03-30T21:02:22.038Z,61.73
2019-03-30T21:04:51.534Z,82.87
2019-03-30T21:07:20.998Z,79.37
2019-03-30T21:09:50.377Z,81.40
2019-03-30T21:12:19.836Z,82.13
2019-03-30T21:14:49.352Z,81.47
2019-03-30T21:17:18.858Z,80.20
2019-03-30T21:19:48.249Z,83.13
2019-03-30T21:22:17.688Z,79.83
2019-03-30T21:24:47.125Z,86.07
2019-03-30T21:27:16.562Z,85.27
2019-03-30T21:29:54.554Z,81.87
2019-03-30T21:32:18.878Z,89.17
2019-03-30T21:34:48.348Z,89.10
2019-03-30T21:37:17.881Z,84.63
2019-03-30T21:39:47.457Z,94.60
2019-03-30T21:42:16.922Z,88.30
2019-03-30T21:44:46.373Z,89.90
2019-03-30T21:47:15.898Z,87.30
2019-03-30T21:49:45.293Z,93.80
2019-03-30T21:52:14.671Z,94.87
2019-03-30T21:54:44.142Z,90.57
2019-03-30T21:57:13.621Z,84.13
2019-03-30T21:59:43.007Z,90.20
2019-03-30T22:02:12.670Z,88.07
2019-03-30T22:04:42.097Z,86.77
2019-03-30T22:07:11.678Z,85.97
2019-03-30T22:09:41.629Z,91.77
2019-03-30T22:12:11.170Z,87.77
2019-03-30T22:14:40.746Z,89.13
2019-03-30T22:17:10.222Z,92.47
2019-03-30T22:19:39.709Z,93.60
2019-03-30T22:22:09.170Z,97.80
2019-03-30T22:24:38.672Z,100.77
2019-03-30T22:27:08.166Z,88.30
2019-03-30T22:29:37.707Z,99.27
2019-03-30T22:32:07.261Z,104.47
2019-03-30T22:34:36.659Z,98.93
2019-03-30T22:37:06.157Z,106.67
2019-03-30T22:39:35.731Z,98.30
2019-03-30T22:42:05.299Z,91.37
2019-03-30T22:44:34.694Z,97.63
2019-03-30T22:47:04.184Z,107.27
2019-03-30T22:49:33.622Z,106.93
2019-03-30T22:52:03.102Z,88.63
2019-03-30T22:54:32.517Z,104.47
2019-03-30T22:57:01.944Z,86.57
2019-03-30T22:59:31.330Z,106.87
2019-03-30T23:02:00.833Z,103.70
2019-03-30T23:04:30.222Z,94.63
2019-03-30T23:06:59.761Z,111.60
2019-03-30T23:09:29.223Z,110.23
2019-03-30T23:11:58.709Z,51.97
2019-03-30T23:14:28.089Z,109.80
2019-03-30T23:16:57.504Z,110.10
2019-03-30T23:19:26.985Z,110.80
2019-03-30T23:21:56.575Z,119.03
2019-03-30T23:24:26.061Z,109.17
2019-03-30T23:26:55.513Z,108.63
2019-03-30T23:29:24.971Z,98.53
2019-03-30T23:31:54.450Z,95.73
2019-03-30T23:34:23.875Z,108.37
2019-03-30T23:36:53.286Z,82.00
2019-03-30T23:39:22.772Z,103.63
2019-03-30T23:41:52.310Z,104.17
2019-03-30T23:44:21.848Z,106.40
2019-03-30T23:46:51.320Z,110.47
2019-03-30T23:49:20.826Z,105.67
2019-03-30T23:51:50.303Z,109.27
2019-03-30T23:54:19.723Z,110.13
2019-03-30T23:56:49.170Z,113.13
2019-03-30T23:59:18.593Z,114.47
